sensor_id;sensor_type;location;lat;lon;timestamp;temperature;humidity
21563;DHT22;10942;47.894;11.424;2023-12-29T00:00:33;4.80;99.90
21563;DHT22;10942;47.894;11.424;2023-12-29T00:02:59;4.80;99.90
21563;DHT22;10942;47.894;11.424;2023-12-29T00:05:24;4.80;99.90
21563;DHT22;10942;47.894;11.424;2023-12-29T00:07:50;4.80;99.90
21563;DHT22;10942;47.894;11.424;2023-12-29T00:10:16;4.80;99.90
21563;DHT22;10942;47.894;11.424;2023-12-29T00:12:42;4.80;99.90
21563;DHT22;10942;47.894;11.424;2023-12-29T00:15:08;4.80;99.90
21563;DHT22;10942;47.894;11.424;2023-12-29T00:17:34;4.80;99.90
21563;DHT22;10942;47.894;11.424;2023-12-29T00:20:04;4.80;99.90
21563;DHT22;10942;47.894;11.424;2023-12-29T00:22:30;4.90;99.90
21563;DHT22;10942;47.894;11.424;2023-12-29T00:24:55;4.90;99.90
21563;DHT22;10942;47.894;11.424;2023-12-29T00:27:21;4.80;99.90
21563;DHT22;10942;47.894;11.424;2023-12-29T00:29:47;4.80;99.90
21563;DHT22;10942;47.894;11.424;2023-12-29T00:32:13;4.70;99.90
21563;DHT22;10942;47.894;11.424;2023-12-29T00:34:38;4.80;99.90
21563;DHT22;10942;47.894;11.424;2023-12-29T00:37:05;4.80;99.90
21563;DHT22;10942;47.894;11.424;2023-12-29T00:39:31;4.70;99.90
21563;DHT22;10942;47.894;11.424;2023-12-29T00:42:04;4.70;99.90
21563;DHT22;10942;47.894;11.424;2023-12-29T00:44:30;4.70;99.90
21563;DHT22;10942;47.894;11.424;2023-12-29T00:46:56;4.60;99.90
21563;DHT22;10942;47.894;11.424;2023-12-29T00:49:22;4.60;99.90
21563;DHT22;10942;47.894;11.424;2023-12-29T00:51:48;4.60;99.90
21563;DHT22;10942;47.894;11.424;2023-12-29T00:54:14;4.50;99.90
21563;DHT22;10942;47.894;11.424;2023-12-29T00:56:40;4.50;99.90
21563;DHT22;10942;47.894;11.424;2023-12-29T00:59:06;4.50;99.90
21563;DHT22;10942;47.894;11.424;2023-12-29T01:01:35;4.50;99.90
21563;DHT22;10942;47.894;11.424;2023-12-29T01:04:02;4.40;99.90
21563;DHT22;10942;47.894;11.424;2023-12-29T01:06:28;4.50;99.90
21563;DHT22;10942;47.894;11.424;2023-12-29T01:08:53;4.40;99.90
21563;DHT22;10942;47.894;11.424;2023-12-29T01:11:19;4.40;99.90
21563;DHT22;10942;47.894;11.424;2023-12-29T01:13:45;4.40;99.90
21563;DHT22;10942;47.894;11.424;2023-12-29T01:16:10;4.30;99.90
21563;DHT22;10942;47.894;11.424;2023-12-29T01:18:36;4.30;99.90
21563;DHT22;10942;47.894;11.424;2023-12-29T01:21:02;4.40;99.90
21563;DHT22;10942;47.894;11.424;2023-12-29T01:23:28;4.30;99.90
21563;DHT22;10942;47.894;11.424;2023-12-29T01:25:54;4.40;99.90
21563;DHT22;10942;47.894;11.424;2023-12-29T01:28:19;4.30;99.90
21563;DHT22;10942;47.894;11.424;2023-12-29T01:30:45;4.40;99.90
21563;DHT22;10942;47.894;11.424;2023-12-29T01:33:11;4.40;99.90
21563;DHT22;10942;47.894;11.424;2023-12-29T01:35:37;4.40;99.90
21563;DHT22;10942;47.894;11.424;2023-12-29T01:38:02;4.50;99.90
21563;DHT22;10942;47.894;11.424;2023-12-29T01:40:28;4.50;99.90
21563;DHT22;10942;47.894;11.424;2023-12-29T01:42:54;4.50;99.90
21563;DHT22;10942;47.894;11.424;2023-12-29T01:45:22;4.50;99.90
21563;DHT22;10942;47.894;11.424;2023-12-29T01:47:49;4.50;99.90
21563;DHT22;10942;47.894;11.424;2023-12-29T01:50:19;4.50;99.90
21563;DHT22;10942;47.894;11.424;2023-12-29T01:52:48;4.50;99.90
21563;DHT22;10942;47.894;11.424;2023-12-29T01:55:18;4.60;99.90
21563;DHT22;10942;47.894;11.424;2023-12-29T01:57:44;4.60;99.90
21563;DHT22;10942;47.894;11.424;2023-12-29T02:00:12;4.60;99.90
21563;DHT22;10942;47.894;11.424;2023-12-29T02:02:38;4.60;99.90
21563;DHT22;10942;47.894;11.424;2023-12-29T02:05:05;4.60;99.90
21563;DHT22;10942;47.894;11.424;2023-12-29T02:07:32;4.50;99.90
21563;DHT22;10942;47.894;11.424;2023-12-29T02:09:58;4.60;99.90
21563;DHT22;10942;47.894;11.424;2023-12-29T02:12:25;4.60;99.90
21563;DHT22;10942;47.894;11.424;2023-12-29T02:14:51;4.70;99.90
21563;DHT22;10942;47.894;11.424;2023-12-29T02:17:22;4.60;99.90
21563;DHT22;10942;47.894;11.424;2023-12-29T02:19:51;4.70;99.90
21563;DHT22;10942;47.894;11.424;2023-12-29T02:22:18;4.60;99.90
21563;DHT22;10942;47.894;11.424;2023-12-29T02:24:46;4.60;99.90
21563;DHT22;10942;47.894;11.424;2023-12-29T02:32:55;4.60;99.90
21563;DHT22;10942;47.894;11.424;2023-12-29T02:35:28;4.60;99.90
21563;DHT22;10942;47.894;11.424;2023-12-29T02:37:57;4.50;99.90
21563;DHT22;10942;47.894;11.424;2023-12-29T02:40:25;4.60;99.90
21563;DHT22;10942;47.894;11.424;2023-12-29T02:42:51;4.60;99.90
21563;DHT22;10942;47.894;11.424;2023-12-29T02:45:17;4.50;99.90
21563;DHT22;10942;47.894;11.424;2023-12-29T02:47:43;4.50;99.90
21563;DHT22;10942;47.894;11.424;2023-12-29T02:50:10;4.60;99.90
21563;DHT22;10942;47.894;11.424;2023-12-29T02:52:36;4.60;99.90
21563;DHT22;10942;47.894;11.424;2023-12-29T02:55:03;4.60;99.90
21563;DHT22;10942;47.894;11.424;2023-12-29T02:57:29;4.50;99.90
21563;DHT22;10942;47.894;11.424;2023-12-29T02:59:56;4.50;99.90
21563;DHT22;10942;47.894;11.424;2023-12-29T03:02:22;4.50;99.90
21563;DHT22;10942;47.894;11.424;2023-12-29T03:04:48;4.30;99.90
21563;DHT22;10942;47.894;11.424;2023-12-29T03:07:14;4.20;99.90
21563;DHT22;10942;47.894;11.424;2023-12-29T03:09:39;4.20;99.90
21563;DHT22;10942;47.894;11.424;2023-12-29T03:12:06;4.10;99.90
21563;DHT22;10942;47.894;11.424;2023-12-29T03:14:32;4.10;99.90
21563;DHT22;10942;47.894;11.424;2023-12-29T03:16:58;4.00;99.90
21563;DHT22;10942;47.894;11.424;2023-12-29T03:19:24;4.00;99.90
21563;DHT22;10942;47.894;11.424;2023-12-29T03:21:50;3.90;99.90
21563;DHT22;10942;47.894;11.424;2023-12-29T03:24:16;3.80;99.90
21563;DHT22;10942;47.894;11.424;2023-12-29T03:26:42;3.90;99.90
21563;DHT22;10942;47.894;11.424;2023-12-29T03:29:08;3.80;99.90
21563;DHT22;10942;47.894;11.424;2023-12-29T03:31:33;3.80;99.90
21563;DHT22;10942;47.894;11.424;2023-12-29T03:33:59;3.80;99.90
21563;DHT22;10942;47.894;11.424;2023-12-29T03:36:25;3.80;99.90
21563;DHT22;10942;47.894;11.424;2023-12-29T03:38:50;3.80;99.90
21563;DHT22;10942;47.894;11.424;2023-12-29T03:41:16;3.80;99.90
21563;DHT22;10942;47.894;11.424;2023-12-29T03:43:42;3.80;99.90
21563;DHT22;10942;47.894;11.424;2023-12-29T03:46:18;3.80;99.90
21563;DHT22;10942;47.894;11.424;2023-12-29T03:48:44;3.80;99.90
21563;DHT22;10942;47.894;11.424;2023-12-29T03:51:10;3.80;99.90
21563;DHT22;10942;47.894;11.424;2023-12-29T03:53:35;3.80;99.90
21563;DHT22;10942;47.894;11.424;2023-12-29T03:56:06;3.80;99.90
21563;DHT22;10942;47.894;11.424;2023-12-29T03:58:32;3.70;99.90
21563;DHT22;10942;47.894;11.424;2023-12-29T04:00:58;3.70;99.90
21563;DHT22;10942;47.894;11.424;2023-12-29T04:03:23;3.70;99.90
21563;DHT22;10942;47.894;11.424;2023-12-29T04:05:49;3.70;99.90
21563;DHT22;10942;47.894;11.424;2023-12-29T04:08:15;3.70;99.90
21563;DHT22;10942;47.894;11.424;2023-12-29T04:10:40;3.80;99.90
21563;DHT22;10942;47.894;11.424;2023-12-29T04:13:06;3.80;99.90
21563;DHT22;10942;47.894;11.424;2023-12-29T04:15:32;3.80;99.90
21563;DHT22;10942;47.894;11.424;2023-12-29T04:17:57;3.80;99.90
21563;DHT22;10942;47.894;11.424;2023-12-29T04:20:23;3.90;99.90
21563;DHT22;10942;47.894;11.424;2023-12-29T04:22:50;3.80;99.90
21563;DHT22;10942;47.894;11.424;2023-12-29T04:25:15;3.80;99.90
21563;DHT22;10942;47.894;11.424;2023-12-29T04:27:41;3.80;99.90
21563;DHT22;10942;47.894;11.424;2023-12-29T04:30:07;3.90;99.90
21563;DHT22;10942;47.894;11.424;2023-12-29T04:32:33;3.90;99.90
21563;DHT22;10942;47.894;11.424;2023-12-29T04:34:58;3.90;99.90
21563;DHT22;10942;47.894;11.424;2023-12-29T04:37:24;4.00;99.90
21563;DHT22;10942;47.894;11.424;2023-12-29T04:39:50;4.00;99.90
21563;DHT22;10942;47.894;11.424;2023-12-29T04:42:16;4.00;99.90
21563;DHT22;10942;47.894;11.424;2023-12-29T04:44:43;4.00;99.90
21563;DHT22;10942;47.894;11.424;2023-12-29T04:47:09;4.00;99.90
21563;DHT22;10942;47.894;11.424;2023-12-29T04:49:35;4.10;99.90
21563;DHT22;10942;47.894;11.424;2023-12-29T04:52:01;4.10;99.90
21563;DHT22;10942;47.894;11.424;2023-12-29T04:54:27;4.10;99.90
21563;DHT22;10942;47.894;11.424;2023-12-29T04:56:52;4.10;99.90
21563;DHT22;10942;47.894;11.424;2023-12-29T04:59:18;4.10;99.90
21563;DHT22;10942;47.894;11.424;2023-12-29T05:01:44;4.10;99.90
21563;DHT22;10942;47.894;11.424;2023-12-29T05:04:10;4.10;99.90
21563;DHT22;10942;47.894;11.424;2023-12-29T05:06:36;4.10;99.90
21563;DHT22;10942;47.894;11.424;2023-12-29T05:09:01;4.20;99.90
21563;DHT22;10942;47.894;11.424;2023-12-29T05:11:28;4.20;99.90
21563;DHT22;10942;47.894;11.424;2023-12-29T05:13:53;4.20;99.90
21563;DHT22;10942;47.894;11.424;2023-12-29T05:16:19;4.20;99.90
21563;DHT22;10942;47.894;11.424;2023-12-29T05:18:45;4.20;99.90
21563;DHT22;10942;47.894;11.424;2023-12-29T05:21:17;4.20;99.90
21563;DHT22;10942;47.894;11.424;2023-12-29T05:23:44;4.20;99.90
21563;DHT22;10942;47.894;11.424;2023-12-29T05:26:11;4.20;99.90
21563;DHT22;10942;47.894;11.424;2023-12-29T05:28:37;4.20;99.90
21563;DHT22;10942;47.894;11.424;2023-12-29T05:31:03;4.20;99.90
21563;DHT22;10942;47.894;11.424;2023-12-29T05:33:33;4.20;99.90
21563;DHT22;10942;47.894;11.424;2023-12-29T05:36:04;4.20;99.90
21563;DHT22;10942;47.894;11.424;2023-12-29T05:38:31;4.20;99.90
21563;DHT22;10942;47.894;11.424;2023-12-29T05:40:57;4.20;99.90
21563;DHT22;10942;47.894;11.424;2023-12-29T05:43:22;4.20;99.90
21563;DHT22;10942;47.894;11.424;2023-12-29T05:45:48;4.20;99.90
21563;DHT22;10942;47.894;11.424;2023-12-29T05:48:14;4.20;99.90
21563;DHT22;10942;47.894;11.424;2023-12-29T05:50:39;4.20;99.90
21563;DHT22;10942;47.894;11.424;2023-12-29T05:53:05;4.20;99.90
21563;DHT22;10942;47.894;11.424;2023-12-29T05:55:31;4.20;99.90
21563;DHT22;10942;47.894;11.424;2023-12-29T05:57:57;4.20;99.90
21563;DHT22;10942;47.894;11.424;2023-12-29T06:00:23;4.10;99.90
21563;DHT22;10942;47.894;11.424;2023-12-29T06:02:48;4.20;99.90
21563;DHT22;10942;47.894;11.424;2023-12-29T06:05:15;4.10;99.90
21563;DHT22;10942;47.894;11.424;2023-12-29T06:07:41;4.20;99.90
21563;DHT22;10942;47.894;11.424;2023-12-29T06:10:07;4.20;99.90
21563;DHT22;10942;47.894;11.424;2023-12-29T06:12:35;4.20;99.90
21563;DHT22;10942;47.894;11.424;2023-12-29T06:15:00;4.30;99.90
21563;DHT22;10942;47.894;11.424;2023-12-29T06:17:26;4.30;99.90
21563;DHT22;10942;47.894;11.424;2023-12-29T06:19:52;4.40;99.90
21563;DHT22;10942;47.894;11.424;2023-12-29T06:22:18;4.40;99.90
21563;DHT22;10942;47.894;11.424;2023-12-29T06:24:44;4.50;99.90
21563;DHT22;10942;47.894;11.424;2023-12-29T06:27:11;4.50;99.90
21563;DHT22;10942;47.894;11.424;2023-12-29T06:29:40;4.60;99.90
21563;DHT22;10942;47.894;11.424;2023-12-29T06:32:06;4.70;99.90
21563;DHT22;10942;47.894;11.424;2023-12-29T06:34:32;4.80;99.90
21563;DHT22;10942;47.894;11.424;2023-12-29T06:36:57;4.90;99.90
21563;DHT22;10942;47.894;11.424;2023-12-29T06:39:23;5.20;99.90
21563;DHT22;10942;47.894;11.424;2023-12-29T06:41:49;5.40;99.90
21563;DHT22;10942;47.894;11.424;2023-12-29T06:44:14;5.50;99.90
21563;DHT22;10942;47.894;11.424;2023-12-29T06:46:40;5.70;99.90
21563;DHT22;10942;47.894;11.424;2023-12-29T06:49:09;5.90;99.90
21563;DHT22;10942;47.894;11.424;2023-12-29T06:51:34;6.00;99.90
21563;DHT22;10942;47.894;11.424;2023-12-29T06:54:06;6.20;99.90
21563;DHT22;10942;47.894;11.424;2023-12-29T06:56:32;6.30;99.90
21563;DHT22;10942;47.894;11.424;2023-12-29T06:58:58;6.60;99.90
21563;DHT22;10942;47.894;11.424;2023-12-29T07:01:24;6.70;99.90
21563;DHT22;10942;47.894;11.424;2023-12-29T07:03:50;6.80;99.90
21563;DHT22;10942;47.894;11.424;2023-12-29T07:06:16;7.00;99.90
21563;DHT22;10942;47.894;11.424;2023-12-29T07:08:42;7.00;99.90
21563;DHT22;10942;47.894;11.424;2023-12-29T07:11:11;7.10;99.90
21563;DHT22;10942;47.894;11.424;2023-12-29T07:13:37;7.20;99.90
21563;DHT22;10942;47.894;11.424;2023-12-29T07:16:04;7.30;99.90
21563;DHT22;10942;47.894;11.424;2023-12-29T07:18:30;7.40;99.90
21563;DHT22;10942;47.894;11.424;2023-12-29T07:20:55;7.50;99.90
21563;DHT22;10942;47.894;11.424;2023-12-29T07:23:21;7.50;99.90
21563;DHT22;10942;47.894;11.424;2023-12-29T07:25:48;7.60;99.90
21563;DHT22;10942;47.894;11.424;2023-12-29T07:28:14;7.80;99.90
21563;DHT22;10942;47.894;11.424;2023-12-29T07:30:39;7.80;99.90
21563;DHT22;10942;47.894;11.424;2023-12-29T07:33:05;7.90;99.90
21563;DHT22;10942;47.894;11.424;2023-12-29T07:35:31;8.00;99.90
21563;DHT22;10942;47.894;11.424;2023-12-29T07:37:57;8.00;99.90
21563;DHT22;10942;47.894;11.424;2023-12-29T07:40:23;8.10;99.90
21563;DHT22;10942;47.894;11.424;2023-12-29T07:42:48;8.00;99.90
21563;DHT22;10942;47.894;11.424;2023-12-29T07:45:16;8.00;99.90
21563;DHT22;10942;47.894;11.424;2023-12-29T07:47:42;8.00;99.90
21563;DHT22;10942;47.894;11.424;2023-12-29T07:50:08;7.90;99.90
21563;DHT22;10942;47.894;11.424;2023-12-29T07:52:34;7.90;99.90
21563;DHT22;10942;47.894;11.424;2023-12-29T07:55:00;7.90;99.90
21563;DHT22;10942;47.894;11.424;2023-12-29T07:57:26;7.90;99.90
21563;DHT22;10942;47.894;11.424;2023-12-29T07:59:52;7.90;99.90
21563;DHT22;10942;47.894;11.424;2023-12-29T08:02:17;8.00;99.90
21563;DHT22;10942;47.894;11.424;2023-12-29T08:04:43;8.00;99.90
21563;DHT22;10942;47.894;11.424;2023-12-29T08:07:12;8.00;99.90
21563;DHT22;10942;47.894;11.424;2023-12-29T08:09:38;8.00;99.90
21563;DHT22;10942;47.894;11.424;2023-12-29T08:12:03;8.00;99.90
21563;DHT22;10942;47.894;11.424;2023-12-29T08:14:29;8.10;99.90
21563;DHT22;10942;47.894;11.424;2023-12-29T08:16:55;8.10;99.90
21563;DHT22;10942;47.894;11.424;2023-12-29T08:19:22;8.10;99.90
21563;DHT22;10942;47.894;11.424;2023-12-29T08:21:48;8.10;99.90
21563;DHT22;10942;47.894;11.424;2023-12-29T08:24:14;8.10;99.90
21563;DHT22;10942;47.894;11.424;2023-12-29T08:26:47;8.20;99.90
21563;DHT22;10942;47.894;11.424;2023-12-29T08:29:13;8.20;99.90
21563;DHT22;10942;47.894;11.424;2023-12-29T08:31:39;8.10;99.90
21563;DHT22;10942;47.894;11.424;2023-12-29T08:34:05;8.10;99.90
21563;DHT22;10942;47.894;11.424;2023-12-29T08:36:30;8.10;99.90
21563;DHT22;10942;47.894;11.424;2023-12-29T08:38:56;8.10;99.90
21563;DHT22;10942;47.894;11.424;2023-12-29T08:41:22;8.00;99.90
21563;DHT22;10942;47.894;11.424;2023-12-29T08:43:48;7.90;99.90
21563;DHT22;10942;47.894;11.424;2023-12-29T08:46:13;7.90;99.90
21563;DHT22;10942;47.894;11.424;2023-12-29T08:48:39;7.90;99.90
21563;DHT22;10942;47.894;11.424;2023-12-29T08:51:05;7.90;99.90
21563;DHT22;10942;47.894;11.424;2023-12-29T08:53:32;7.90;99.90
21563;DHT22;10942;47.894;11.424;2023-12-29T08:56:01;7.90;99.90
21563;DHT22;10942;47.894;11.424;2023-12-29T08:58:28;7.90;99.90
21563;DHT22;10942;47.894;11.424;2023-12-29T09:00:54;7.90;99.90
21563;DHT22;10942;47.894;11.424;2023-12-29T09:03:20;8.00;99.90
21563;DHT22;10942;47.894;11.424;2023-12-29T09:05:45;8.00;99.90
21563;DHT22;10942;47.894;11.424;2023-12-29T09:08:11;8.10;99.90
21563;DHT22;10942;47.894;11.424;2023-12-29T09:10:37;8.20;99.90
21563;DHT22;10942;47.894;11.424;2023-12-29T09:13:04;8.30;99.90
21563;DHT22;10942;47.894;11.424;2023-12-29T09:15:30;8.30;99.90
21563;DHT22;10942;47.894;11.424;2023-12-29T09:17:55;8.40;99.90
21563;DHT22;10942;47.894;11.424;2023-12-29T09:20:21;8.50;99.90
21563;DHT22;10942;47.894;11.424;2023-12-29T09:22:47;8.50;99.90
21563;DHT22;10942;47.894;11.424;2023-12-29T09:25:13;8.50;99.90
21563;DHT22;10942;47.894;11.424;2023-12-29T09:27:39;8.50;99.90
21563;DHT22;10942;47.894;11.424;2023-12-29T09:30:05;8.60;99.90
21563;DHT22;10942;47.894;11.424;2023-12-29T09:32:31;8.60;99.90
21563;DHT22;10942;47.894;11.424;2023-12-29T09:34:57;8.70;99.90
21563;DHT22;10942;47.894;11.424;2023-12-29T09:37:23;8.70;99.90
21563;DHT22;10942;47.894;11.424;2023-12-29T09:39:48;8.80;99.90
21563;DHT22;10942;47.894;11.424;2023-12-29T09:42:20;8.80;99.90
21563;DHT22;10942;47.894;11.424;2023-12-29T09:44:50;8.90;99.90
21563;DHT22;10942;47.894;11.424;2023-12-29T09:47:22;9.00;99.90
21563;DHT22;10942;47.894;11.424;2023-12-29T09:49:49;9.00;99.90
21563;DHT22;10942;47.894;11.424;2023-12-29T09:52:16;9.10;99.90
21563;DHT22;10942;47.894;11.424;2023-12-29T09:54:42;9.20;99.90
21563;DHT22;10942;47.894;11.424;2023-12-29T09:57:09;9.30;99.90
21563;DHT22;10942;47.894;11.424;2023-12-29T09:59:35;9.30;99.90
21563;DHT22;10942;47.894;11.424;2023-12-29T10:02:05;9.40;99.90
21563;DHT22;10942;47.894;11.424;2023-12-29T10:04:31;9.40;99.90
21563;DHT22;10942;47.894;11.424;2023-12-29T10:06:57;9.50;99.90
21563;DHT22;10942;47.894;11.424;2023-12-29T10:14:34;9.80;99.90
21563;DHT22;10942;47.894;11.424;2023-12-29T10:17:09;9.90;99.90
21563;DHT22;10942;47.894;11.424;2023-12-29T10:19:47;9.90;99.90
21563;DHT22;10942;47.894;11.424;2023-12-29T10:22:23;9.90;99.90
21563;DHT22;10942;47.894;11.424;2023-12-29T10:24:52;9.90;99.90
21563;DHT22;10942;47.894;11.424;2023-12-29T10:27:18;10.00;99.90
21563;DHT22;10942;47.894;11.424;2023-12-29T10:29:43;10.10;99.90
21563;DHT22;10942;47.894;11.424;2023-12-29T10:32:09;10.10;99.90
21563;DHT22;10942;47.894;11.424;2023-12-29T10:34:35;10.20;99.90
21563;DHT22;10942;47.894;11.424;2023-12-29T10:37:02;10.30;99.90
21563;DHT22;10942;47.894;11.424;2023-12-29T10:44:32;10.80;99.90
21563;DHT22;10942;47.894;11.424;2023-12-29T10:46:58;10.90;99.90
21563;DHT22;10942;47.894;11.424;2023-12-29T10:49:24;11.00;99.90
21563;DHT22;10942;47.894;11.424;2023-12-29T10:54:20;11.10;99.90
21563;DHT22;10942;47.894;11.424;2023-12-29T10:57:02;11.10;99.90
21563;DHT22;10942;47.894;11.424;2023-12-29T10:59:30;11.30;99.90
21563;DHT22;10942;47.894;11.424;2023-12-29T11:01:56;11.30;99.90
21563;DHT22;10942;47.894;11.424;2023-12-29T11:06:49;11.50;99.90
21563;DHT22;10942;47.894;11.424;2023-12-29T11:17:00;11.60;99.90
21563;DHT22;10942;47.894;11.424;2023-12-29T11:19:26;11.70;99.90
21563;DHT22;10942;47.894;11.424;2023-12-29T11:21:55;11.70;99.90
21563;DHT22;10942;47.894;11.424;2023-12-29T11:24:24;11.70;99.90
21563;DHT22;10942;47.894;11.424;2023-12-29T11:26:50;11.60;99.90
21563;DHT22;10942;47.894;11.424;2023-12-29T11:29:16;11.80;99.90
21563;DHT22;10942;47.894;11.424;2023-12-29T11:31:44;11.70;99.90
21563;DHT22;10942;47.894;11.424;2023-12-29T11:34:22;11.50;99.90
21563;DHT22;10942;47.894;11.424;2023-12-29T11:36:50;11.30;99.90
21563;DHT22;10942;47.894;11.424;2023-12-29T11:39:35;11.30;99.90
21563;DHT22;10942;47.894;11.424;2023-12-29T11:44:35;11.30;99.90
21563;DHT22;10942;47.894;11.424;2023-12-29T11:47:01;11.20;99.90
21563;DHT22;10942;47.894;11.424;2023-12-29T11:49:58;11.20;99.90
21563;DHT22;10942;47.894;11.424;2023-12-29T11:52:43;11.20;99.90
21563;DHT22;10942;47.894;11.424;2023-12-29T11:57:34;11.20;99.90
21563;DHT22;10942;47.894;11.424;2023-12-29T12:00:02;11.20;99.90
21563;DHT22;10942;47.894;11.424;2023-12-29T12:02:37;11.20;99.90
21563;DHT22;10942;47.894;11.424;2023-12-29T12:05:03;11.20;99.90
21563;DHT22;10942;47.894;11.424;2023-12-29T12:12:45;11.00;99.90
21563;DHT22;10942;47.894;11.424;2023-12-29T12:17:53;11.10;99.90
21563;DHT22;10942;47.894;11.424;2023-12-29T12:20:19;11.10;99.90
21563;DHT22;10942;47.894;11.424;2023-12-29T12:22:45;11.00;99.90
21563;DHT22;10942;47.894;11.424;2023-12-29T12:25:12;11.10;99.90
21563;DHT22;10942;47.894;11.424;2023-12-29T12:27:38;11.10;99.90
21563;DHT22;10942;47.894;11.424;2023-12-29T12:30:05;11.10;99.90
21563;DHT22;10942;47.894;11.424;2023-12-29T12:32:31;11.20;99.90
21563;DHT22;10942;47.894;11.424;2023-12-29T12:34:57;11.20;99.90
21563;DHT22;10942;47.894;11.424;2023-12-29T12:37:25;11.20;99.90
21563;DHT22;10942;47.894;11.424;2023-12-29T12:39:51;11.10;99.90
21563;DHT22;10942;47.894;11.424;2023-12-29T12:42:18;11.20;99.90
21563;DHT22;10942;47.894;11.424;2023-12-29T12:45:04;11.30;99.90
21563;DHT22;10942;47.894;11.424;2023-12-29T12:47:43;11.30;99.90
21563;DHT22;10942;47.894;11.424;2023-12-29T12:50:11;11.20;99.90
21563;DHT22;10942;47.894;11.424;2023-12-29T12:52:38;11.10;99.90
21563;DHT22;10942;47.894;11.424;2023-12-29T12:55:06;11.30;99.90
21563;DHT22;10942;47.894;11.424;2023-12-29T12:57:33;11.20;99.90
21563;DHT22;10942;47.894;11.424;2023-12-29T13:00:00;11.30;99.90
21563;DHT22;10942;47.894;11.424;2023-12-29T13:02:27;11.30;99.90
21563;DHT22;10942;47.894;11.424;2023-12-29T13:04:54;11.30;99.90
21563;DHT22;10942;47.894;11.424;2023-12-29T13:07:20;11.30;99.90
21563;DHT22;10942;47.894;11.424;2023-12-29T13:09:48;11.30;99.90
21563;DHT22;10942;47.894;11.424;2023-12-29T13:12:17;11.20;99.90
21563;DHT22;10942;47.894;11.424;2023-12-29T13:14:44;11.20;99.90
21563;DHT22;10942;47.894;11.424;2023-12-29T13:17:13;11.20;99.90
21563;DHT22;10942;47.894;11.424;2023-12-29T13:19:40;11.20;99.90
21563;DHT22;10942;47.894;11.424;2023-12-29T13:22:12;11.10;99.90
21563;DHT22;10942;47.894;11.424;2023-12-29T13:24:46;11.10;99.90
21563;DHT22;10942;47.894;11.424;2023-12-29T13:27:12;11.10;99.90
21563;DHT22;10942;47.894;11.424;2023-12-29T13:29:39;11.10;99.90
21563;DHT22;10942;47.894;11.424;2023-12-29T13:32:13;11.00;99.90
21563;DHT22;10942;47.894;11.424;2023-12-29T13:42:37;10.90;99.90
21563;DHT22;10942;47.894;11.424;2023-12-29T13:45:04;10.90;99.90
21563;DHT22;10942;47.894;11.424;2023-12-29T13:47:31;10.90;99.90
21563;DHT22;10942;47.894;11.424;2023-12-29T13:49:58;11.00;99.90
21563;DHT22;10942;47.894;11.424;2023-12-29T13:52:24;10.90;99.90
21563;DHT22;10942;47.894;11.424;2023-12-29T13:54:49;10.90;99.90
21563;DHT22;10942;47.894;11.424;2023-12-29T13:57:15;10.90;99.90
21563;DHT22;10942;47.894;11.424;2023-12-29T13:59:41;10.90;99.90
21563;DHT22;10942;47.894;11.424;2023-12-29T14:05:05;10.80;99.90
21563;DHT22;10942;47.894;11.424;2023-12-29T14:07:32;10.80;99.90
21563;DHT22;10942;47.894;11.424;2023-12-29T14:09:59;10.80;99.90
21563;DHT22;10942;47.894;11.424;2023-12-29T14:12:25;10.70;99.90
21563;DHT22;10942;47.894;11.424;2023-12-29T14:14:53;10.70;99.90
21563;DHT22;10942;47.894;11.424;2023-12-29T14:17:22;10.60;99.90
21563;DHT22;10942;47.894;11.424;2023-12-29T14:19:47;10.60;99.90
21563;DHT22;10942;47.894;11.424;2023-12-29T14:25:03;10.40;99.90
21563;DHT22;10942;47.894;11.424;2023-12-29T14:27:29;10.50;99.90
21563;DHT22;10942;47.894;11.424;2023-12-29T14:29:56;10.40;99.90
21563;DHT22;10942;47.894;11.424;2023-12-29T14:32:22;10.40;99.90
21563;DHT22;10942;47.894;11.424;2023-12-29T14:34:49;10.30;99.90
21563;DHT22;10942;47.894;11.424;2023-12-29T14:37:20;10.30;99.90
21563;DHT22;10942;47.894;11.424;2023-12-29T14:39:49;10.30;99.90
21563;DHT22;10942;47.894;11.424;2023-12-29T14:42:15;10.40;99.90
21563;DHT22;10942;47.894;11.424;2023-12-29T14:44:41;10.30;99.90
21563;DHT22;10942;47.894;11.424;2023-12-29T14:47:07;10.30;99.90
21563;DHT22;10942;47.894;11.424;2023-12-29T14:49:33;10.30;99.90
21563;DHT22;10942;47.894;11.424;2023-12-29T14:51:59;10.30;99.90
21563;DHT22;10942;47.894;11.424;2023-12-29T14:54:24;10.20;99.90
21563;DHT22;10942;47.894;11.424;2023-12-29T14:56:50;10.20;99.90
21563;DHT22;10942;47.894;11.424;2023-12-29T14:59:16;10.20;99.90
21563;DHT22;10942;47.894;11.424;2023-12-29T15:01:41;10.20;99.90
21563;DHT22;10942;47.894;11.424;2023-12-29T15:04:07;10.20;99.90
21563;DHT22;10942;47.894;11.424;2023-12-29T15:06:36;10.20;99.90
21563;DHT22;10942;47.894;11.424;2023-12-29T15:09:02;10.10;99.90
21563;DHT22;10942;47.894;11.424;2023-12-29T15:11:28;10.00;99.90
21563;DHT22;10942;47.894;11.424;2023-12-29T15:13:54;9.90;99.90
21563;DHT22;10942;47.894;11.424;2023-12-29T15:16:20;9.90;99.90
21563;DHT22;10942;47.894;11.424;2023-12-29T15:18:45;9.80;99.90
21563;DHT22;10942;47.894;11.424;2023-12-29T15:21:11;9.80;99.90
21563;DHT22;10942;47.894;11.424;2023-12-29T15:23:37;9.80;99.90
21563;DHT22;10942;47.894;11.424;2023-12-29T15:26:02;9.80;99.90
21563;DHT22;10942;47.894;11.424;2023-12-29T15:28:28;9.70;99.90
21563;DHT22;10942;47.894;11.424;2023-12-29T15:30:54;9.70;99.90
21563;DHT22;10942;47.894;11.424;2023-12-29T15:33:19;9.60;99.90
21563;DHT22;10942;47.894;11.424;2023-12-29T15:35:45;9.60;99.90
21563;DHT22;10942;47.894;11.424;2023-12-29T15:38:11;9.60;99.90
21563;DHT22;10942;47.894;11.424;2023-12-29T15:40:37;9.60;99.90
21563;DHT22;10942;47.894;11.424;2023-12-29T15:43:03;9.50;99.90
21563;DHT22;10942;47.894;11.424;2023-12-29T15:45:30;9.50;99.90
21563;DHT22;10942;47.894;11.424;2023-12-29T15:47:56;9.50;99.90
21563;DHT22;10942;47.894;11.424;2023-12-29T15:50:21;9.50;99.90
21563;DHT22;10942;47.894;11.424;2023-12-29T15:52:47;9.50;99.90
21563;DHT22;10942;47.894;11.424;2023-12-29T15:55:13;9.40;99.90
21563;DHT22;10942;47.894;11.424;2023-12-29T15:57:39;9.40;99.90
21563;DHT22;10942;47.894;11.424;2023-12-29T16:00:05;9.40;99.90
21563;DHT22;10942;47.894;11.424;2023-12-29T16:02:36;9.40;99.90
21563;DHT22;10942;47.894;11.424;2023-12-29T16:05:02;9.40;99.90
21563;DHT22;10942;47.894;11.424;2023-12-29T16:07:28;9.30;99.90
21563;DHT22;10942;47.894;11.424;2023-12-29T16:09:54;9.40;99.90
21563;DHT22;10942;47.894;11.424;2023-12-29T16:12:20;9.30;99.90
21563;DHT22;10942;47.894;11.424;2023-12-29T16:14:45;9.30;99.90
21563;DHT22;10942;47.894;11.424;2023-12-29T16:17:11;9.30;99.90
21563;DHT22;10942;47.894;11.424;2023-12-29T16:19:36;9.30;99.90